createdAt,value
2018-12-17T00:01:42.510Z,99957.63
2018-12-17T00:06:55.059Z,99964.23
2018-12-17T00:09:23.647Z,99969.87
2018-12-17T00:11:52.125Z,99967.27
2018-12-17T00:14:20.596Z,99969.42
2018-12-17T00:19:30.929Z,99974.23
2018-12-17T00:21:59.270Z,99977.78
2018-12-17T00:24:27.612Z,99980.52
2018-12-17T00:29:37.743Z,99982.62
2018-12-17T00:32:06.079Z,99978.73
2018-12-17T00:34:34.388Z,99979.22
2018-12-17T00:37:02.738Z,99980.99
2018-12-17T00:42:12.849Z,99985.22
2018-12-17T00:47:22.859Z,99987.68
2018-12-17T00:49:51.183Z,99985.91
2018-12-17T00:52:19.533Z,99989.69
2018-12-17T00:54:47.910Z,99993.10
2018-12-17T00:57:16.245Z,99991.80
2018-12-17T01:02:26.447Z,100001.36
2018-12-17T01:04:54.874Z,100001.94
2018-12-17T01:10:11.293Z,100008.08
2018-12-17T01:15:21.336Z,100021.05
2018-12-17T01:17:49.681Z,100025.75
2018-12-17T01:20:17.982Z,100025.28
2018-12-17T01:22:46.343Z,100038.72
2018-12-17T01:25:14.687Z,100042.12
2018-12-17T01:27:43.025Z,100046.98
2018-12-17T01:30:11.594Z,100053.32
2018-12-17T01:32:40.211Z,100058.64
2018-12-17T01:35:08.660Z,100066.90
2018-12-17T01:37:37.106Z,100063.01
2018-12-17T01:40:05.975Z,100058.77
2018-12-17T01:42:34.329Z,100063.62
2018-12-17T01:45:02.705Z,100067.51
2018-12-17T01:50:09.738Z,100077.16
2018-12-17T01:55:19.794Z,100078.59
2018-12-17T01:57:48.106Z,100076.13
2018-12-17T02:00:16.363Z,100071.77
2018-12-17T02:02:44.650Z,100075.79
2018-12-17T02:05:13.043Z,100078.86
2018-12-17T02:10:23.200Z,100073.56
2018-12-17T02:15:33.374Z,100085.84
2018-12-17T02:18:02.041Z,100080.31
2018-12-17T02:20:30.374Z,100089.03
2018-12-17T02:22:58.786Z,100091.73
2018-12-17T02:25:27.086Z,100088.45
2018-12-17T02:30:37.182Z,100094.81
2018-12-17T02:33:05.568Z,100092.47
2018-12-17T02:35:34.011Z,100094.45
2018-12-17T02:38:02.445Z,100102.58
2018-12-17T02:43:12.443Z,100096.44
2018-12-17T02:45:40.689Z,100099.51
2018-12-17T02:50:50.857Z,100111.08
2018-12-17T02:53:19.986Z,100107.28
2018-12-17T02:55:48.253Z,100114.23
2018-12-17T02:58:16.534Z,100119.90
2018-12-17T03:00:44.984Z,100128.63
2018-12-17T03:03:13.403Z,100120.51
2018-12-17T03:05:41.749Z,100128.15
2018-12-17T03:08:10.041Z,100129.79
2018-12-17T03:10:38.586Z,100134.02
2018-12-17T03:13:06.935Z,100137.09
2018-12-17T03:15:35.300Z,100138.52
2018-12-17T03:18:04.025Z,100136.75
2018-12-17T03:20:32.386Z,100137.23
2018-12-17T03:23:00.886Z,100138.39
2018-12-17T03:25:29.229Z,100141.11
2018-12-17T03:27:57.531Z,100146.30
2018-12-17T03:30:25.981Z,100150.19
2018-12-17T03:32:55.129Z,100159.39
2018-12-17T03:35:23.655Z,100164.57
2018-12-17T03:37:52.110Z,100168.80
2018-12-17T03:40:20.484Z,100169.63
2018-12-17T03:42:48.889Z,100167.98
2018-12-17T03:45:17.210Z,100168.94
2018-12-17T03:47:45.937Z,100171.18
2018-12-17T03:50:15.252Z,100164.80
2018-12-17T03:55:25.263Z,100175.77
2018-12-17T03:57:53.537Z,100175.21
2018-12-17T04:00:21.864Z,100178.63
2018-12-17T04:02:50.179Z,100175.55
2018-12-17T04:05:18.515Z,100179.09
2018-12-17T04:07:46.848Z,100180.49
2018-12-17T04:10:15.201Z,100179.33
2018-12-17T04:12:44.147Z,100179.80
2018-12-17T04:15:12.415Z,100188.52
2018-12-17T04:17:40.725Z,100188.17
2018-12-17T04:22:51.035Z,100193.83
2018-12-17T04:25:19.337Z,100199.84
2018-12-17T04:30:29.406Z,100201.73
2018-12-17T04:32:57.731Z,100201.96
2018-12-17T04:38:07.840Z,100208.56
2018-12-17T04:40:36.251Z,100203.73
2018-12-17T04:43:04.627Z,100214.78
2018-12-17T04:45:33.982Z,100219.36
2018-12-17T04:50:44.341Z,100219.27
2018-12-17T04:53:12.720Z,100227.73
2018-12-17T04:58:22.811Z,100237.03
2018-12-17T05:00:51.252Z,100239.05
2018-12-17T05:06:01.479Z,100254.69
2018-12-17T05:08:29.790Z,100252.45
2018-12-17T05:10:58.143Z,100256.24
2018-12-17T05:13:26.915Z,100255.86
2018-12-17T05:18:37.020Z,100262.81
2018-12-17T05:21:05.376Z,100264.11
2018-12-17T05:26:15.435Z,100277.45
2018-12-17T05:28:43.737Z,100285.23
2018-12-17T05:31:12.142Z,100284.85
2018-12-17T05:33:40.608Z,100290.98
2018-12-17T05:36:09.138Z,100296.89
2018-12-17T05:38:37.535Z,100296.99
2018-12-17T05:41:05.888Z,100296.64
2018-12-17T05:43:34.160Z,100304.20
2018-12-17T05:46:02.940Z,100300.78
2018-12-17T05:48:31.263Z,100306.79
2018-12-17T05:53:41.349Z,100318.67
2018-12-17T05:56:09.705Z,100320.32
2018-12-17T05:58:38.064Z,100319.28
2018-12-17T06:01:06.575Z,100321.05
2018-12-17T06:03:36.119Z,100319.75
2018-12-17T06:06:04.675Z,100338.59
2018-12-17T06:08:32.986Z,100335.66
2018-12-17T06:13:43.198Z,100348.27
2018-12-17T06:16:11.542Z,100355.31
2018-12-17T06:18:40.511Z,100353.92
2018-12-17T06:21:08.845Z,100362.05
2018-12-17T06:26:19.182Z,100353.20
2018-12-17T06:28:47.624Z,100359.67
2018-12-17T06:31:15.969Z,100365.11
2018-12-17T06:33:44.278Z,100361.34
2018-12-17T06:38:54.921Z,100375.13
2018-12-17T06:41:23.263Z,100377.25
2018-12-17T06:46:33.348Z,100394.80
2018-12-17T06:49:01.681Z,100403.65
2018-12-17T06:51:30.342Z,100412.25
2018-12-17T06:53:58.603Z,100412.59
2018-12-17T06:56:26.958Z,100411.17
2018-12-17T06:58:56.140Z,100414.23
2018-12-17T07:01:24.607Z,100418.00
2018-12-17T07:06:34.888Z,100430.73
2018-12-17T07:09:05.540Z,100434.27
2018-12-17T07:11:35.135Z,100446.98
2018-12-17T07:14:03.636Z,100448.53
2018-12-17T07:19:10.918Z,100455.02
2018-12-17T07:21:39.354Z,100459.73
2018-12-17T07:24:07.704Z,100453.47
2018-12-17T07:26:36.061Z,100459.38
2018-12-17T07:29:04.573Z,100459.73
2018-12-17T07:31:33.149Z,100463.02
2018-12-17T07:34:01.510Z,100474.09
2018-12-17T07:36:29.847Z,100475.65
2018-12-17T07:38:58.298Z,100465.62
2018-12-17T07:41:26.616Z,100471.86
2018-12-17T07:43:56.194Z,100478.13
2018-12-17T07:46:25.155Z,100486.14
2018-12-17T07:48:53.398Z,100491.67
2018-12-17T07:54:03.595Z,100504.78
2018-12-17T07:59:13.650Z,100504.78
2018-12-17T08:01:42.161Z,100507.24
2018-12-17T08:04:10.435Z,100511.61
2018-12-17T08:06:38.860Z,100515.84
2018-12-17T08:09:07.902Z,100516.67
2018-12-17T08:11:38.383Z,100509.36
2018-12-17T08:14:06.723Z,100523.16
2018-12-17T08:19:16.619Z,100523.16
2018-12-17T08:21:44.960Z,100532.23
2018-12-17T08:24:13.270Z,100536.03
2018-12-17T08:26:42.380Z,100537.33
2018-12-17T08:29:10.906Z,100535.44
2018-12-17T08:34:20.964Z,100542.76
2018-12-17T08:39:31.076Z,100554.45
2018-12-17T08:41:59.406Z,100548.19
2018-12-17T08:44:27.737Z,100548.41
2018-12-17T08:49:38.907Z,100570.83
2018-12-17T08:52:07.225Z,100573.09
2018-12-17T08:54:35.562Z,100574.96
2018-12-17T08:57:03.939Z,100583.35
2018-12-17T08:59:32.367Z,100588.67
2018-12-17T09:02:00.847Z,100582.77
2018-12-17T09:07:10.913Z,100590.60
2018-12-17T09:09:39.282Z,100589.78
2018-12-17T09:12:07.707Z,100591.05
2018-12-17T09:14:36.123Z,100604.52
2018-12-17T09:17:04.919Z,100605.34
2018-12-17T09:19:34.325Z,100612.19
2018-12-17T09:22:02.627Z,100628.25
2018-12-17T09:24:31.050Z,100626.13
2018-12-17T09:29:41.202Z,100625.50
2018-12-17T09:32:09.593Z,100632.12
2018-12-17T09:34:37.954Z,100633.77
2018-12-17T09:37:06.373Z,100636.97
2018-12-17T09:39:34.830Z,100635.62
2018-12-17T09:42:03.191Z,100637.05
2018-12-17T09:47:13.278Z,100650.64
2018-12-17T09:49:41.655Z,100659.36
2018-12-17T09:52:09.976Z,100655.34
2018-12-17T09:54:38.335Z,100659.48
2018-12-17T09:57:06.692Z,100653.67
2018-12-17T10:02:13.213Z,100660.78
2018-12-17T10:07:23.272Z,100669.75
2018-12-17T10:09:51.618Z,100663.13
2018-12-17T10:12:19.985Z,100666.06
2018-12-17T10:14:48.226Z,100666.41
2018-12-17T10:17:16.503Z,100662.28
2018-12-17T10:22:26.533Z,100669.13
2018-12-17T10:24:55.142Z,100665.93
2018-12-17T10:27:23.909Z,100665.58
2018-12-17T10:29:52.197Z,100660.98
2018-12-17T10:35:02.403Z,100657.56
2018-12-17T10:37:30.701Z,100659.69
2018-12-17T10:39:59.119Z,100655.78
2018-12-17T10:42:27.454Z,100663.23
2018-12-17T10:44:55.719Z,100662.41
2018-12-17T10:50:06.829Z,100657.09
2018-12-17T10:55:13.969Z,100655.44
2018-12-17T10:57:42.254Z,100657.30
2018-12-17T11:03:09.469Z,100657.90
2018-12-17T11:08:21.834Z,100656.33
2018-12-17T11:10:50.183Z,100654.89
2018-12-17T11:13:19.580Z,100651.59
2018-12-17T11:15:47.908Z,100664.33
2018-12-17T11:18:16.182Z,100666.36
2018-12-17T11:20:44.511Z,100673.78
2018-12-17T11:25:54.657Z,100663.02
2018-12-17T11:28:23.054Z,100659.33
2018-12-17T11:30:51.370Z,100663.00
2018-12-17T11:36:01.479Z,100655.05
2018-12-17T11:38:29.779Z,100659.89
2018-12-17T11:40:59.145Z,100658.66
2018-12-17T11:43:27.438Z,100655.83
2018-12-17T11:48:39.268Z,100654.72
2018-12-17T11:51:07.596Z,100648.29
2018-12-17T11:56:17.747Z,100638.44
2018-12-17T11:58:46.054Z,100635.91
2018-12-17T12:01:16.398Z,100638.62
2018-12-17T12:03:44.837Z,100639.55
2018-12-17T12:08:54.865Z,100649.52
2018-12-17T12:11:24.239Z,100649.97
2018-12-17T12:13:52.714Z,100657.75
2018-12-17T12:16:20.985Z,100653.43
2018-12-17T12:18:54.925Z,100657.92
2018-12-17T12:24:04.995Z,100668.65
2018-12-17T12:26:33.321Z,100677.63
2018-12-17T12:29:01.634Z,100677.59
2018-12-17T12:31:29.895Z,100690.92
2018-12-17T12:36:40.045Z,100692.77
2018-12-17T12:39:08.323Z,100694.66
2018-12-17T12:41:38.636Z,100697.47
2018-12-17T12:44:08.929Z,100696.12
2018-12-17T12:49:21.100Z,100691.89
2018-12-17T12:51:49.401Z,100704.05
2018-12-17T12:57:00.808Z,100703.05
2018-12-17T12:59:29.822Z,100709.43
2018-12-17T13:01:58.169Z,100718.65
2018-12-17T13:04:26.615Z,100722.56
2018-12-17T13:06:56.127Z,100730.25
2018-12-17T13:12:11.533Z,100740.77
2018-12-17T13:14:39.897Z,100746.53
2018-12-17T13:17:13.952Z,100747.25
2018-12-17T13:19:42.481Z,100751.50
2018-12-17T13:24:52.672Z,100759.33
2018-12-17T13:27:21.012Z,100766.53
2018-12-17T13:29:49.304Z,100762.63
2018-12-17T13:32:17.627Z,100762.23
2018-12-17T13:34:45.968Z,100773.34
2018-12-17T13:39:56.155Z,100762.77
2018-12-17T13:45:06.985Z,100768.56
2018-12-17T13:47:35.347Z,100772.69
2018-12-17T13:50:10.063Z,100779.55
2018-12-17T13:52:44.213Z,100784.52
2018-12-17T13:57:55.093Z,100796.80
2018-12-17T14:00:23.465Z,100800.95
2018-12-17T14:05:33.167Z,100808.02
2018-12-17T14:08:01.555Z,100811.79
2018-12-17T14:10:35.684Z,100819.71
2018-12-17T14:13:04.070Z,100817.11
2018-12-17T14:15:38.265Z,100821.70
2018-12-17T14:21:05.149Z,100829.83
2018-12-17T14:23:33.446Z,100821.52
2018-12-17T14:26:02.097Z,100834.56
2018-12-17T14:28:30.410Z,100844.05
2018-12-17T14:30:59.943Z,100850.12
2018-12-17T14:33:28.242Z,100853.61
2018-12-17T14:36:02.359Z,100857.39
2018-12-17T14:38:30.730Z,100858.58
2018-12-17T14:40:59.784Z,100858.69
2018-12-17T14:43:28.192Z,100862.50
2018-12-17T14:45:56.705Z,100864.15
2018-12-17T14:48:25.077Z,100871.02
2018-12-17T14:53:35.495Z,100872.19
2018-12-17T14:58:47.921Z,100873.48
2018-12-17T15:01:16.285Z,100876.09
2018-12-17T15:03:44.749Z,100877.06
2018-12-17T15:06:13.050Z,100881.94
2018-12-17T15:08:41.376Z,100880.44
2018-12-17T15:11:09.732Z,100876.63
2018-12-17T15:13:38.060Z,100865.16
2018-12-17T15:16:06.464Z,100867.67
2018-12-17T15:18:34.751Z,100872.70
2018-12-17T15:21:03.097Z,100870.95
2018-12-17T15:26:13.153Z,100878.23
2018-12-17T15:28:41.605Z,100883.08
2018-12-17T15:31:09.907Z,100875.39
2018-12-17T15:33:38.237Z,100877.66
2018-12-17T15:38:48.449Z,100892.62
2018-12-17T15:41:16.914Z,100887.89
2018-12-17T15:43:45.289Z,100896.30
2018-12-17T15:46:13.754Z,100899.67
2018-12-17T15:48:42.099Z,100905.51
2018-12-17T15:51:10.425Z,100905.61
2018-12-17T15:53:38.799Z,100912.27
2018-12-17T15:56:07.450Z,100916.80
2018-12-17T15:58:35.912Z,100920.23
2018-12-17T16:01:04.623Z,100928.55
2018-12-17T16:03:34.119Z,100928.78
2018-12-17T16:06:02.793Z,100934.96
2018-12-17T16:08:32.012Z,100935.09
2018-12-17T16:11:01.383Z,100933.93
2018-12-17T16:13:29.686Z,100940.59
2018-12-17T16:15:58.105Z,100949.34
2018-12-17T16:21:08.163Z,100954.96
2018-12-17T16:23:36.448Z,100968.59
2018-12-17T16:26:04.946Z,100971.80
2018-12-17T16:28:33.210Z,100972.63
2018-12-17T16:33:44.323Z,100982.85
2018-12-17T16:36:12.673Z,100989.37
2018-12-17T16:38:41.164Z,100993.77
2018-12-17T16:41:09.524Z,100994.48
2018-12-17T16:43:37.847Z,100995.92
2018-12-17T16:46:06.409Z,100986.92
2018-12-17T16:48:34.724Z,100979.44
2018-12-17T16:51:03.493Z,100988.92
2018-12-17T16:53:31.845Z,100997.09
2018-12-17T16:58:42.226Z,101028.50
2018-12-17T17:01:11.235Z,101027.55
2018-12-17T17:03:39.763Z,101029.53
2018-12-17T17:06:09.098Z,101017.45
2018-12-17T17:08:37.647Z,101021.84
2018-12-17T17:11:06.205Z,101021.84
2018-12-17T17:13:34.800Z,101028.98
2018-12-17T17:18:45.518Z,101038.60
2018-12-17T17:21:14.977Z,101029.84
2018-12-17T17:23:43.510Z,101034.02
2018-12-17T17:26:12.087Z,101042.80
2018-12-17T17:28:40.775Z,101044.09
2018-12-17T17:31:09.492Z,101043.97
2018-12-17T17:33:38.130Z,101042.31
2018-12-17T17:36:06.760Z,101048.70
2018-12-17T17:38:35.503Z,101048.45
2018-12-17T17:41:04.400Z,101054.15
2018-12-17T17:43:32.951Z,101052.02
2018-12-17T17:46:01.459Z,101054.76
2018-12-17T17:48:30.085Z,101059.97
2018-12-17T17:50:58.680Z,101060.10
2018-12-17T17:53:29.001Z,101063.88
2018-12-17T17:55:57.742Z,101061.27
2018-12-17T18:01:09.092Z,101068.75
2018-12-17T18:06:22.231Z,101073.14
2018-12-17T18:08:50.625Z,101081.09
2018-12-17T18:11:21.338Z,101087.13
2018-12-17T18:13:49.814Z,101092.48
2018-12-17T18:19:02.383Z,101093.40
2018-12-17T18:21:30.799Z,101091.75
2018-12-17T18:26:41.593Z,101099.83
2018-12-17T18:29:10.155Z,101104.31
2018-12-17T18:31:38.682Z,101105.39
2018-12-17T18:34:22.593Z,101108.73
2018-12-17T18:37:03.101Z,101106.23
2018-12-17T18:42:13.744Z,101123.42
2018-12-17T18:44:42.098Z,101116.66
2018-12-17T18:49:52.521Z,101126.73
2018-12-17T18:52:21.061Z,101137.06
2018-12-17T18:57:31.850Z,101137.16
2018-12-17T19:00:01.163Z,101138.37
2018-12-17T19:05:11.356Z,101146.89
2018-12-17T19:07:39.732Z,101149.63
2018-12-17T19:10:09.000Z,101143.10
2018-12-17T19:12:37.501Z,101149.84
2018-12-17T19:15:06.770Z,101147.11
2018-12-17T19:17:35.084Z,101151.75
2018-12-17T19:22:45.532Z,101156.01
2018-12-17T19:25:13.947Z,101162.40
2018-12-17T19:30:24.204Z,101164.75
2018-12-17T19:32:52.551Z,101164.66
2018-12-17T19:35:21.024Z,101166.31
2018-12-17T19:37:49.480Z,101171.05
2018-12-17T19:42:59.942Z,101175.79
2018-12-17T19:45:28.275Z,101172.22
2018-12-17T19:50:38.299Z,101172.22
2018-12-17T19:53:06.583Z,101176.48
2018-12-17T19:55:35.128Z,101175.87
2018-12-17T19:58:03.631Z,101187.62
2018-12-17T20:00:32.098Z,101186.66
2018-12-17T20:03:00.944Z,101181.92
2018-12-17T20:05:29.437Z,101190.13
2018-12-17T20:10:39.923Z,101192.26
2018-12-17T20:13:08.263Z,101189.65
2018-12-17T20:15:36.826Z,101185.84
2018-12-17T20:18:05.369Z,101185.84
2018-12-17T20:20:33.811Z,101185.48
2018-12-17T20:25:45.255Z,101193.91
2018-12-17T20:28:13.567Z,101189.66
2018-12-17T20:30:41.909Z,101196.52
2018-12-17T20:33:10.265Z,101193.31
2018-12-17T20:35:38.826Z,101188.70
2018-12-17T20:38:08.598Z,101188.34
2018-12-17T20:40:37.075Z,101188.83
2018-12-17T20:45:47.974Z,101188.83
2018-12-17T20:48:16.443Z,101192.48
2018-12-17T20:50:45.104Z,101196.05
2018-12-17T20:53:13.647Z,101200.20
2018-12-17T20:55:41.928Z,101200.20
2018-12-17T20:58:10.335Z,101198.91
2018-12-17T21:00:38.846Z,101204.95
2018-12-17T21:05:49.304Z,101205.30
2018-12-17T21:08:17.672Z,101205.77
2018-12-17T21:10:46.017Z,101211.69
2018-12-17T21:18:24.081Z,101203.64
2018-12-17T21:20:52.346Z,101205.64
2018-12-17T21:23:21.399Z,101201.26
2018-12-17T21:25:49.749Z,101196.52
2018-12-17T21:28:18.147Z,101194.86
2018-12-17T21:30:46.467Z,101193.31
2018-12-17T21:33:14.817Z,101189.52
2018-12-17T21:35:43.124Z,101189.17
2018-12-17T21:38:12.010Z,101195.95
2018-12-17T21:40:40.348Z,101197.72
2018-12-17T21:43:08.676Z,101196.54
2018-12-17T21:45:37.062Z,101194.62
2018-12-17T21:50:47.151Z,101209.40
2018-12-17T21:53:15.458Z,101207.87
2018-12-17T21:55:43.830Z,101203.70
2018-12-17T21:58:12.118Z,101210.34
2018-12-17T22:00:40.466Z,101213.89
2018-12-17T22:03:13.199Z,101214.26
2018-12-17T22:05:40.143Z,101216.97
2018-12-17T22:10:50.253Z,101216.22
2018-12-17T22:13:18.571Z,101221.67
2018-12-17T22:15:47.792Z,101216.44
2018-12-17T22:18:16.073Z,101221.55
2018-12-17T22:20:44.546Z,101218.80
2018-12-17T22:23:12.884Z,101217.27
2018-12-17T22:25:41.146Z,101217.00
2018-12-17T22:28:09.499Z,101213.80
2018-12-17T22:30:37.766Z,101216.27
2018-12-17T22:33:06.914Z,101221.33
2018-12-17T22:38:17.032Z,101223.94
2018-12-17T22:40:46.454Z,101220.59
2018-12-17T22:45:56.506Z,101217.73
2018-12-17T22:48:24.892Z,101223.64
2018-12-17T22:50:53.258Z,101223.37
2018-12-17T22:53:21.559Z,101226.58
2018-12-17T22:55:50.991Z,101229.77
2018-12-17T22:58:19.810Z,101228.47
2018-12-17T23:00:48.442Z,101224.30
2018-12-17T23:05:58.697Z,101224.41
2018-12-17T23:08:27.018Z,101217.44
2018-12-17T23:11:12.577Z,101224.05
2018-12-17T23:13:58.235Z,101221.30
2018-12-17T23:16:43.848Z,101222.01
2018-12-17T23:19:10.650Z,101216.54
2018-12-17T23:21:41.290Z,101216.06
2018-12-17T23:24:11.719Z,101218.66
2018-12-17T23:26:40.110Z,101221.11
2018-12-17T23:29:08.635Z,101223.47
2018-12-17T23:34:19.009Z,101223.08
2018-12-17T23:36:47.377Z,101228.48
2018-12-17T23:39:17.454Z,101228.72
2018-12-17T23:41:46.279Z,101236.24
2018-12-17T23:46:55.874Z,101224.14
2018-12-17T23:49:24.148Z,101223.07
2018-12-17T23:51:52.416Z,101223.86
2018-12-17T23:54:20.740Z,101223.25
2018-12-17T23:56:49.061Z,101220.37
